createdAt,value
2023-03-27T00:00:20.320Z,5.51
2023-03-27T00:03:24.617Z,5.39
2023-03-27T00:06:27.447Z,5.28
2023-03-27T00:09:32.087Z,5.29
2023-03-27T00:12:35.053Z,5.32
2023-03-27T00:15:40.862Z,5.26
2023-03-27T00:18:45.144Z,5.23
2023-03-27T00:21:48.651Z,5.21
2023-03-27T00:24:52.080Z,5.22
2023-03-27T00:27:56.323Z,5.22
2023-03-27T00:31:00.686Z,5.18
2023-03-27T00:34:03.664Z,5.07
2023-03-27T00:37:06.649Z,5.04
2023-03-27T00:40:13.679Z,5.10
2023-03-27T00:43:24.463Z,5.19
2023-03-27T00:46:37.508Z,5.09
2023-03-27T00:49:40.619Z,4.96
2023-03-27T00:52:48.673Z,5.04
2023-03-27T00:55:54.353Z,5.09
2023-03-27T00:59:01.741Z,4.87
2023-03-27T01:02:06.578Z,4.88
2023-03-27T01:05:11.159Z,4.82
2023-03-27T01:08:15.624Z,4.85
2023-03-27T01:11:29.135Z,4.93
2023-03-27T01:14:38.978Z,4.87
2023-03-27T01:17:56.637Z,5.01
2023-03-27T01:21:49.858Z,4.89
2023-03-27T01:25:14.730Z,4.89
2023-03-27T01:28:37.001Z,4.83
2023-03-27T01:31:53.298Z,4.75
2023-03-27T01:35:25.323Z,4.80
2023-03-27T01:39:05.266Z,4.89
2023-03-27T01:42:19.749Z,4.95
2023-03-27T01:45:26.590Z,4.88
2023-03-27T01:48:35.964Z,4.94
2023-03-27T01:51:42.937Z,4.96
2023-03-27T01:54:55.821Z,4.76
2023-03-27T01:58:05.960Z,4.89
2023-03-27T02:01:12.486Z,4.80
2023-03-27T02:04:19.496Z,5.00
2023-03-27T02:07:27.162Z,4.89
2023-03-27T02:10:34.981Z,4.91
2023-03-27T02:13:43.562Z,4.67
2023-03-27T02:16:52.693Z,4.68
2023-03-27T02:19:59.445Z,4.72
2023-03-27T02:23:02.304Z,4.67
2023-03-27T02:26:05.536Z,4.68
2023-03-27T02:29:28.220Z,4.65
2023-03-27T02:32:45.962Z,4.53
2023-03-27T02:35:58.473Z,4.38
2023-03-27T02:39:08.784Z,4.32
2023-03-27T02:42:19.388Z,4.24
2023-03-27T02:45:31.508Z,4.41
2023-03-27T02:48:38.984Z,4.50
2023-03-27T02:51:45.066Z,4.28
2023-03-27T02:54:53.127Z,4.28
2023-03-27T02:58:02.249Z,4.32
2023-03-27T03:01:10.638Z,4.36
2023-03-27T03:04:17.862Z,4.27
2023-03-27T03:07:20.712Z,4.21
2023-03-27T03:10:24.801Z,4.08
2023-03-27T03:13:27.544Z,4.15
2023-03-27T03:16:32.156Z,4.19
2023-03-27T03:19:34.969Z,4.17
2023-03-27T03:22:39.846Z,4.04
2023-03-27T03:25:44.129Z,3.95
2023-03-27T03:29:01.052Z,3.92
2023-03-27T03:32:06.869Z,3.96
2023-03-27T03:35:10.124Z,3.85
2023-03-27T03:38:12.942Z,3.99
2023-03-27T03:41:15.841Z,3.91
2023-03-27T03:44:18.597Z,3.97
2023-03-27T03:47:22.781Z,3.80
2023-03-27T03:50:25.645Z,3.61
2023-03-27T03:53:28.346Z,3.70
2023-03-27T03:56:31.587Z,3.65
2023-03-27T03:59:34.301Z,3.64
2023-03-27T04:02:40.633Z,3.72
2023-03-27T04:05:43.884Z,3.64
2023-03-27T04:08:46.582Z,3.57
2023-03-27T04:11:49.330Z,3.48
2023-03-27T04:14:52.207Z,3.39
2023-03-27T04:17:57.727Z,3.41
2023-03-27T04:21:00.768Z,3.39
2023-03-27T04:24:03.617Z,3.23
2023-03-27T04:27:07.284Z,3.31
2023-03-27T04:30:13.962Z,3.12
2023-03-27T04:33:19.397Z,3.09
2023-03-27T04:36:22.548Z,3.03
2023-03-27T04:39:26.561Z,3.12
2023-03-27T04:42:29.283Z,2.97
2023-03-27T04:45:32.305Z,3.00
2023-03-27T04:48:38.557Z,3.01
2023-03-27T04:51:41.940Z,2.94
2023-03-27T04:54:45.232Z,2.90
2023-03-27T04:57:48.580Z,2.79
2023-03-27T05:00:51.450Z,2.72
2023-03-27T05:03:56.272Z,2.80
2023-03-27T05:07:00.977Z,2.65
2023-03-27T05:10:03.946Z,2.65
2023-03-27T05:13:06.679Z,2.52
2023-03-27T05:16:10.583Z,2.55
2023-03-27T05:19:14.634Z,2.52
2023-03-27T05:22:17.407Z,2.52
2023-03-27T05:25:20.260Z,2.51
2023-03-27T05:28:23.022Z,2.66
2023-03-27T05:31:26.095Z,2.83
2023-03-27T05:34:30.298Z,3.03
2023-03-27T05:37:33.835Z,2.90
2023-03-27T05:40:36.607Z,2.93
2023-03-27T05:43:39.333Z,2.97
2023-03-27T05:46:42.563Z,3.04
2023-03-27T05:49:46.676Z,3.25
2023-03-27T05:52:56.454Z,3.14
2023-03-27T05:56:03.218Z,3.27
2023-03-27T05:59:06.652Z,3.37
2023-03-27T06:02:11.102Z,3.30
2023-03-27T06:05:15.452Z,3.41
2023-03-27T06:08:18.414Z,3.66
2023-03-27T06:11:21.192Z,3.65
2023-03-27T06:14:23.980Z,3.73
2023-03-27T06:17:26.997Z,3.88
2023-03-27T06:20:31.527Z,4.35
2023-03-27T06:23:34.445Z,4.57
2023-03-27T06:26:38.036Z,4.47
2023-03-27T06:29:41.643Z,4.18
2023-03-27T06:32:46.427Z,4.23
2023-03-27T06:35:53.117Z,4.19
2023-03-27T06:38:56.728Z,4.26
2023-03-27T06:41:59.584Z,4.31
2023-03-27T06:45:02.334Z,4.29
2023-03-27T06:48:12.277Z,4.38
2023-03-27T06:51:23.136Z,4.73
2023-03-27T06:54:25.975Z,4.97
2023-03-27T06:57:28.776Z,5.17
2023-03-27T07:00:35.169Z,5.93
2023-03-27T07:03:38.803Z,6.49
2023-03-27T07:06:43.109Z,6.74
2023-03-27T07:09:45.948Z,7.36
2023-03-27T07:12:49.353Z,7.46
2023-03-27T07:15:52.359Z,8.12
2023-03-27T07:18:55.834Z,7.92
2023-03-27T07:21:59.916Z,8.03
2023-03-27T07:25:03.177Z,8.16
2023-03-27T07:28:07.212Z,8.35
2023-03-27T07:31:27.627Z,7.72
2023-03-27T07:34:35.102Z,7.51
2023-03-27T07:37:39.846Z,7.71
2023-03-27T07:40:44.361Z,7.60
2023-03-27T07:43:47.149Z,7.47
2023-03-27T07:46:52.207Z,7.15
2023-03-27T07:49:55.002Z,7.14
2023-03-27T07:52:59.475Z,7.01
2023-03-27T07:59:23.200Z,6.45
2023-03-27T08:02:26.005Z,6.72
2023-03-27T08:05:29.098Z,7.58
2023-03-27T08:08:33.712Z,8.32
2023-03-27T08:11:37.567Z,8.49
2023-03-27T08:14:40.282Z,8.52
2023-03-27T08:17:43.089Z,7.71
2023-03-27T08:20:47.927Z,7.54
2023-03-27T08:23:52.067Z,7.27
2023-03-27T08:26:55.169Z,7.08
2023-03-27T08:29:58.249Z,7.09
2023-03-27T08:33:02.492Z,6.59
2023-03-27T08:36:07.129Z,6.52
2023-03-27T08:39:13.049Z,6.64
2023-03-27T08:42:19.303Z,6.94
2023-03-27T08:45:27.134Z,7.15
2023-03-27T08:48:35.046Z,7.03
2023-03-27T08:51:43.871Z,7.12
2023-03-27T08:54:58.342Z,6.74
2023-03-27T08:58:01.327Z,6.90
2023-03-27T09:01:09.775Z,7.31
2023-03-27T09:04:28.068Z,7.67
2023-03-27T09:07:38.238Z,8.03
2023-03-27T09:10:47.953Z,8.11
2023-03-27T09:13:52.656Z,7.83
2023-03-27T09:17:00.599Z,8.16
2023-03-27T09:20:12.346Z,8.22
2023-03-27T09:23:20.485Z,8.14
2023-03-27T09:26:31.847Z,7.93
2023-03-27T09:29:40.468Z,8.39
2023-03-27T09:32:44.102Z,8.50
2023-03-27T09:35:47.485Z,8.47
2023-03-27T09:38:53.377Z,8.49
2023-03-27T09:42:00.586Z,8.01
2023-03-27T09:45:13.821Z,7.59
2023-03-27T09:48:27.124Z,7.90
2023-03-27T09:51:38.482Z,8.63
2023-03-27T09:54:53.594Z,9.45
2023-03-27T09:58:10.148Z,9.90
2023-03-27T10:01:16.835Z,9.92
2023-03-27T10:04:23.073Z,10.01
2023-03-27T10:07:26.910Z,9.60
2023-03-27T10:10:32.615Z,9.01
2023-03-27T10:13:36.802Z,9.61
2023-03-27T10:16:41.642Z,9.72
2023-03-27T10:19:46.543Z,8.68
2023-03-27T10:22:54.685Z,8.88
2023-03-27T10:26:01.610Z,9.20
2023-03-27T10:29:23.268Z,9.37
2023-03-27T10:32:44.431Z,9.34
2023-03-27T10:35:49.467Z,8.74
2023-03-27T10:38:57.315Z,8.72
2023-03-27T10:42:04.144Z,8.60
2023-03-27T10:45:17.514Z,9.12
2023-03-27T10:48:34.802Z,10.12
2023-03-27T10:51:47.888Z,11.04
2023-03-27T10:55:06.776Z,10.26
2023-03-27T10:58:23.558Z,9.10
2023-03-27T11:01:32.362Z,9.18
2023-03-27T11:04:44.416Z,9.30
2023-03-27T11:07:51.446Z,9.23
2023-03-27T11:10:59.097Z,9.78
2023-03-27T11:14:05.841Z,11.15
2023-03-27T11:17:14.219Z,10.56
2023-03-27T11:20:26.244Z,10.72
2023-03-27T11:23:35.050Z,10.00
2023-03-27T11:26:48.957Z,9.74
2023-03-27T11:30:00.885Z,9.61
2023-03-27T11:33:24.303Z,9.60
2023-03-27T11:36:43.539Z,9.71
2023-03-27T11:39:51.715Z,9.15
2023-03-27T11:42:54.480Z,8.88
2023-03-27T11:46:06.901Z,8.93
2023-03-27T11:49:27.275Z,9.19
2023-03-27T11:52:45.126Z,8.95
2023-03-27T11:56:04.269Z,8.88
2023-03-27T11:59:22.465Z,8.77
2023-03-27T12:02:42.432Z,9.87
2023-03-27T12:05:59.340Z,10.45
2023-03-27T12:09:15.771Z,11.15
2023-03-27T12:12:35.513Z,11.76
2023-03-27T12:16:01.269Z,11.30
2023-03-27T12:19:28.462Z,11.17
2023-03-27T12:22:45.682Z,11.18
2023-03-27T12:26:02.597Z,11.88
2023-03-27T12:29:23.819Z,11.99
2023-03-27T12:32:45.583Z,11.45
2023-03-27T12:35:51.627Z,11.07
2023-03-27T12:42:44.433Z,10.44
2023-03-27T12:46:11.070Z,9.89
2023-03-27T12:49:47.037Z,9.77
2023-03-27T12:52:53.093Z,9.32
2023-03-27T12:56:36.127Z,9.59
2023-03-27T12:59:51.558Z,9.85
2023-03-27T13:03:32.664Z,10.42
2023-03-27T13:06:45.421Z,11.27
2023-03-27T13:10:02.670Z,11.17
2023-03-27T13:13:25.317Z,10.68
2023-03-27T13:16:49.482Z,9.66
2023-03-27T13:20:08.285Z,9.47
2023-03-27T13:23:25.352Z,9.83
2023-03-27T13:26:41.696Z,10.15
2023-03-27T13:29:51.329Z,9.82
2023-03-27T13:36:24.790Z,8.70
2023-03-27T13:39:40.338Z,8.01
2023-03-27T13:42:46.126Z,7.34
2023-03-27T13:45:52.126Z,7.03
2023-03-27T13:49:08.045Z,7.29
2023-03-27T13:52:33.606Z,7.12
2023-03-27T13:56:00.598Z,7.15
2023-03-27T13:59:27.781Z,7.56
2023-03-27T14:03:04.005Z,7.81
2023-03-27T14:06:33.385Z,7.58
2023-03-27T14:09:53.417Z,7.98
2023-03-27T14:13:11.670Z,8.04
2023-03-27T14:16:41.324Z,8.07
2023-03-27T14:20:24.006Z,7.93
2023-03-27T14:23:30.739Z,7.94
2023-03-27T14:26:37.972Z,8.16
2023-03-27T14:29:40.760Z,7.87
2023-03-27T14:32:44.524Z,8.07
2023-03-27T14:35:54.077Z,8.13
2023-03-27T14:39:02.417Z,8.03
2023-03-27T14:42:17.623Z,8.20
2023-03-27T14:45:23.555Z,8.35
2023-03-27T14:48:31.108Z,8.28
2023-03-27T14:51:41.982Z,8.40
2023-03-27T14:54:54.722Z,8.33
2023-03-27T14:58:10.910Z,8.03
2023-03-27T15:01:17.163Z,8.27
2023-03-27T15:04:20.850Z,8.39
2023-03-27T15:07:28.867Z,8.47
2023-03-27T15:10:32.972Z,8.78
2023-03-27T15:13:37.926Z,8.80
2023-03-27T15:16:41.581Z,8.79
2023-03-27T15:19:49.090Z,8.68
2023-03-27T15:23:00.928Z,8.62
2023-03-27T15:26:07.463Z,8.68
2023-03-27T15:29:18.902Z,8.72
2023-03-27T15:32:22.214Z,8.55
2023-03-27T15:35:33.501Z,8.42
2023-03-27T15:38:37.515Z,8.58
2023-03-27T15:41:44.507Z,8.33
2023-03-27T15:44:48.755Z,8.25
2023-03-27T15:48:01.883Z,8.09
2023-03-27T15:51:07.126Z,8.10
2023-03-27T15:54:25.454Z,8.21
2023-03-27T15:57:30.645Z,8.00
2023-03-27T16:00:35.185Z,7.83
2023-03-27T16:03:38.684Z,7.50
2023-03-27T16:06:45.474Z,7.06
2023-03-27T16:09:55.958Z,6.87
2023-03-27T16:13:02.584Z,6.86
2023-03-27T16:16:22.605Z,6.91
2023-03-27T16:19:25.737Z,7.03
2023-03-27T16:22:31.345Z,7.03
2023-03-27T16:25:34.390Z,6.88
2023-03-27T16:28:37.384Z,6.70
2023-03-27T16:31:42.885Z,6.59
2023-03-27T16:34:47.802Z,6.35
2023-03-27T16:37:51.155Z,6.21
2023-03-27T16:40:53.852Z,6.15
2023-03-27T16:43:56.871Z,6.03
2023-03-27T16:47:01.205Z,6.22
2023-03-27T16:53:10.327Z,6.10
2023-03-27T16:56:13.671Z,6.02
2023-03-27T16:59:16.484Z,6.02
2023-03-27T17:02:20.809Z,5.98
2023-03-27T17:05:23.570Z,5.85
2023-03-27T17:08:26.705Z,5.84
2023-03-27T17:11:29.570Z,5.57
2023-03-27T17:14:32.355Z,5.72
2023-03-27T17:17:36.635Z,5.53
2023-03-27T17:20:39.484Z,5.34
2023-03-27T17:23:43.622Z,5.46
2023-03-27T17:26:46.633Z,5.40
2023-03-27T17:29:49.346Z,5.47
2023-03-27T17:32:53.697Z,5.51
2023-03-27T17:35:57.223Z,5.22
2023-03-27T17:39:04.299Z,5.30
2023-03-27T17:42:07.468Z,5.33
2023-03-27T17:45:11.112Z,5.26
2023-03-27T17:48:15.609Z,5.22
2023-03-27T17:51:18.336Z,5.24
2023-03-27T17:54:21.202Z,5.16
2023-03-27T17:57:24.077Z,5.09
2023-03-27T18:00:27.474Z,4.98
2023-03-27T18:03:31.735Z,4.98
2023-03-27T18:06:34.553Z,4.88
2023-03-27T18:09:37.410Z,4.92
2023-03-27T18:12:40.355Z,4.96
2023-03-27T18:15:43.212Z,4.93
2023-03-27T18:18:47.964Z,4.88
2023-03-27T18:21:50.725Z,4.91
2023-03-27T18:24:53.697Z,4.85
2023-03-27T18:27:56.677Z,4.96
2023-03-27T18:31:01.869Z,5.02
2023-03-27T18:34:06.180Z,4.75
2023-03-27T18:37:09.157Z,4.39
2023-03-27T18:40:15.244Z,4.41
2023-03-27T18:43:18.303Z,4.22
2023-03-27T18:46:21.298Z,4.15
2023-03-27T18:49:25.784Z,4.00
2023-03-27T18:52:29.138Z,4.18
2023-03-27T18:55:32.460Z,3.96
2023-03-27T18:58:35.996Z,3.92
2023-03-27T19:01:39.586Z,3.91
2023-03-27T19:04:44.183Z,3.95
2023-03-27T19:07:47.089Z,4.09
2023-03-27T19:10:50.194Z,3.99
2023-03-27T19:13:52.915Z,4.04
2023-03-27T19:16:56.037Z,4.01
2023-03-27T19:20:00.220Z,4.00
2023-03-27T19:23:03.351Z,4.07
2023-03-27T19:26:10.816Z,4.02
2023-03-27T19:29:13.850Z,4.02
2023-03-27T19:32:16.768Z,4.03
2023-03-27T19:35:21.164Z,3.97
2023-03-27T19:38:24.044Z,3.91
2023-03-27T19:41:27.040Z,3.84
2023-03-27T19:44:29.902Z,3.84
2023-03-27T19:47:32.833Z,3.85
2023-03-27T19:50:36.999Z,3.82
2023-03-27T19:53:39.969Z,3.72
2023-03-27T19:56:42.677Z,3.83
2023-03-27T19:59:45.668Z,3.71
2023-03-27T20:02:48.446Z,3.65
2023-03-27T20:05:54.138Z,3.62
2023-03-27T20:08:57.807Z,3.80
2023-03-27T20:12:00.559Z,3.81
2023-03-27T20:18:10.408Z,3.73
2023-03-27T20:21:15.773Z,3.72
2023-03-27T20:24:18.829Z,3.82
2023-03-27T20:27:21.613Z,3.58
2023-03-27T20:30:25.061Z,3.67
2023-03-27T20:33:27.802Z,3.62
2023-03-27T20:36:33.313Z,3.50
2023-03-27T20:39:39.166Z,3.48
2023-03-27T20:42:47.142Z,3.73
2023-03-27T20:45:52.106Z,3.60
2023-03-27T20:48:55.969Z,3.72
2023-03-27T20:52:00.708Z,3.59
2023-03-27T20:55:03.587Z,3.52
2023-03-27T20:58:07.404Z,3.61
2023-03-27T21:01:11.873Z,3.73
2023-03-27T21:04:15.906Z,3.80
2023-03-27T21:07:20.463Z,3.65
2023-03-27T21:10:24.664Z,3.61
2023-03-27T21:13:27.656Z,3.59
2023-03-27T21:16:30.571Z,3.54
2023-03-27T21:19:33.611Z,3.50
2023-03-27T21:22:37.735Z,3.45
2023-03-27T21:25:40.716Z,3.33
2023-03-27T21:28:43.578Z,3.39
2023-03-27T21:31:46.504Z,3.25
2023-03-27T21:34:49.498Z,3.19
2023-03-27T21:37:53.585Z,3.08
2023-03-27T21:40:56.610Z,3.20
2023-03-27T21:43:59.331Z,3.38
2023-03-27T21:47:02.224Z,3.12
2023-03-27T21:50:05.820Z,3.05
2023-03-27T21:53:09.990Z,3.15
2023-03-27T21:56:13.054Z,3.14
2023-03-27T21:59:16.034Z,3.15
2023-03-27T22:02:19.003Z,3.21
2023-03-27T22:05:22.209Z,3.29
2023-03-27T22:08:26.918Z,3.18
2023-03-27T22:11:29.785Z,3.22
2023-03-27T22:14:32.735Z,3.27
2023-03-27T22:17:36.739Z,3.27
2023-03-27T22:20:39.655Z,3.37
2023-03-27T22:23:43.974Z,3.28
2023-03-27T22:26:46.955Z,3.35
2023-03-27T22:29:49.763Z,3.45
2023-03-27T22:32:52.736Z,3.23
2023-03-27T22:35:55.745Z,3.24
2023-03-27T22:39:00.517Z,3.19
2023-03-27T22:42:03.407Z,3.32
2023-03-27T22:45:07.528Z,3.14
2023-03-27T22:48:10.507Z,3.27
2023-03-27T22:51:14.186Z,3.27
2023-03-27T22:54:18.596Z,3.34
2023-03-27T22:57:21.517Z,3.31
2023-03-27T23:00:24.257Z,3.57
2023-03-27T23:03:28.399Z,3.44
2023-03-27T23:06:31.382Z,3.20
2023-03-27T23:09:35.464Z,3.31
2023-03-27T23:12:38.337Z,3.34
2023-03-27T23:15:41.062Z,3.51
2023-03-27T23:18:43.858Z,3.32
2023-03-27T23:21:46.782Z,3.40
2023-03-27T23:24:50.954Z,3.13
2023-03-27T23:27:53.781Z,3.18
2023-03-27T23:30:59.084Z,3.28
2023-03-27T23:34:01.997Z,3.32
2023-03-27T23:37:04.861Z,3.17
2023-03-27T23:40:10.569Z,3.43
2023-03-27T23:43:13.448Z,3.28
2023-03-27T23:46:16.789Z,3.27
2023-03-27T23:49:19.617Z,3.15
2023-03-27T23:52:22.485Z,3.01
2023-03-27T23:55:26.601Z,3.16
2023-03-27T23:58:32.632Z,3.25
